White Plains, Maryland
Current Conditions -  °F | °C
As of 1:58 PM on Wednesday 26 Nov 2014 (Local Time) from KDAA Reporting Station
Light Rain Light Rain  
Wind Chill: 30°   Ceiling: 800
Heat Index: 36°   Visibility: 10mi
Dew Point: 34°   Wind: 8mph
Humidity: 91%   Direction: 330°NNW
Pressure: 29.9"   Gusts: NA
Location:  38.59°N, 76.98°W
Report Text: KDAA 261858Z AUTO 33007KT 10SM -RA OVC008 02/01 A2990 RMK AO2 UPB1846E1854RAB1802E1814B1836DZE1836 SLP129 P0001 T00240011
Loading
Personal Weather Stations






























Interactive Weather Map New forecast layout! Learn more

10-Day Weather Forecast

Advertisements
Track Severe Weather on mobile